Pueblo Of Acoma, New Mexico
Current Conditions -  °F | °C
As of 10:57 AM on Friday 28 Nov 2014 (Local Time) from KGNT Reporting Station
Clear Clear  
Wind Chill: 44°   Ceiling: Unl
Heat Index: 46°   Visibility: 10mi
Dew Point: 10°   Wind: 5mph
Humidity: 23%   Direction: 350°N
Pressure: 30.29"   Gusts: NA
Location:  35.08°N, 107.6°W
Report Text: KGNT 281757Z AUTO 35004KT 10SM CLR 08/M12 A3029 RMK AO2
Loading
Personal Weather Stations






























Interactive Weather Map New forecast layout! Learn more

10-Day Weather Forecast

Advertisements
Track Severe Weather on mobile